モンテレー の空港の天気 - METARとTAF

ヘネラル・マリアノ・エソコベド国際空港 ( MMMY / MTY ) - メキシコ ヌエボ・レオン州モンテレー
飛行場実況気象(Metar)
観測時間09/22 17:48 CDT (09/22 22:48 UTC)
風向・風速北北西 4m/s
視程10km以上
天気現象
全天の4割程度の雲 雲底高度 300m
全天の8割程度の雲 雲底高度 1220m
全天を覆う雲 雲底高度 2130m
気温27℃
湿度70%
気圧1014hPa
METARMMMY 222248Z 33007KT 10SM SCT010 BKN040 OVC070 27/21 A2994 RMK 8/57/ BINOVC
過去の天気等 Google飛行場航空写真 Wunderground天気予報

過去48時間のMETAR

飛行場予報(TAF)
発表時間: 9/22 18:30 CDT (9/22 23:30 UTC)
予報対象時間: 22日19時 CDT ~ 24日1時 CDT
風向・風速北北西 4m/s
視程10km以上
全天の4割程度の雲 雲底高度 460m
全天の8割程度の雲 雲底高度 1220m
全天の8割程度の雲 雲底高度 2130m
22日21時 CDT ~ 22日22時 CDT に徐々に
風向・風速北北西 3m/s
23日5時 CDT から
風向・風速北北西 3m/s
視程10km以上
天気現象煙霧
全天の8割程度の雲 雲底高度 460m
全天の8割程度の雲 雲底高度 2440m
23日6時 CDT ~ 23日10時 CDT に一時的に
視程4830m
天気現象もや 煙霧
23日11時 CDT から
風向・風速北北東 3m/s
視程10km以上
天気現象煙霧
全天の8割程度の雲 雲底高度 610m
全天の8割程度の雲 雲底高度 2440m
23日16時 CDT から
風向・風速東 6m/s
視程10km以上
天気現象煙霧
全天の8割程度の雲 雲底高度 760m
全天の8割程度の雲 雲底高度 2440m
23日20時 CDT ~ 23日21時 CDT に徐々に
風向・風速東南東 4m/s
TAF MMMY 222330Z 2300/2406 33008KT P6SM SCT015 BKN040 BKN070 TX28/2322Z TN22/2313Z
BECMG 2302/2303 33005KT
FM231000 34005KT 6SM HZ BKN015 BKN080
TEMPO 2311/2315 3SM BR HZ
FM231600 03005KT 6SM HZ BKN020 BKN080
FM232100 09012KT 6SM HZ BKN025 BKN080
BECMG 2401/2402 12008KT